createdAt,value
2018-06-13T00:00:01.315Z,8.77
2018-06-13T00:01:01.784Z,8.76
2018-06-13T00:02:02.277Z,8.74
2018-06-13T00:03:02.730Z,8.74
2018-06-13T00:04:03.198Z,8.73
2018-06-13T00:05:03.672Z,8.72
2018-06-13T00:06:04.149Z,8.71
2018-06-13T00:07:04.618Z,8.70
2018-06-13T00:08:05.092Z,8.70
2018-06-13T00:09:05.567Z,8.68
2018-06-13T00:10:06.040Z,8.66
2018-06-13T00:11:06.511Z,8.66
2018-06-13T00:12:06.986Z,8.64
2018-06-13T00:13:07.457Z,8.66
2018-06-13T00:14:07.929Z,8.63
2018-06-13T00:15:08.406Z,8.62
2018-06-13T00:16:08.874Z,8.61
2018-06-13T00:17:09.345Z,8.59
2018-06-13T00:18:09.816Z,8.59
2018-06-13T00:19:10.287Z,8.56
2018-06-13T00:20:10.762Z,8.56
2018-06-13T00:21:11.231Z,8.56
2018-06-13T00:22:11.702Z,8.56
2018-06-13T00:23:12.173Z,8.54
2018-06-13T00:24:12.643Z,8.52
2018-06-13T00:25:13.115Z,8.52
2018-06-13T00:26:13.588Z,8.50
2018-06-13T00:27:14.056Z,8.48
2018-06-13T00:28:14.526Z,8.48
2018-06-13T00:29:15.000Z,8.48
2018-06-13T00:30:15.470Z,8.46
2018-06-13T00:31:15.942Z,8.46
2018-06-13T00:32:16.413Z,8.44
2018-06-13T00:33:16.886Z,8.43
2018-06-13T00:34:17.355Z,8.42
2018-06-13T00:35:17.827Z,8.40
2018-06-13T00:36:18.297Z,8.39
2018-06-13T00:37:18.770Z,8.40
2018-06-13T00:38:19.241Z,8.38
2018-06-13T00:39:19.711Z,8.36
2018-06-13T00:40:20.188Z,8.36
2018-06-13T00:41:20.659Z,8.35
2018-06-13T00:42:21.129Z,8.35
2018-06-13T00:43:21.601Z,8.34
2018-06-13T00:44:22.078Z,8.32
2018-06-13T00:45:22.548Z,8.32
2018-06-13T00:46:23.074Z,8.32
2018-06-13T00:47:23.492Z,8.30
2018-06-13T00:48:23.963Z,8.29
2018-06-13T00:49:24.438Z,8.26
2018-06-13T00:50:24.915Z,8.28
2018-06-13T00:51:25.382Z,8.26
2018-06-13T00:52:25.858Z,8.26
2018-06-13T00:53:26.340Z,8.25
2018-06-13T00:54:26.808Z,8.25
2018-06-13T00:55:27.278Z,8.22
2018-06-13T00:56:27.753Z,8.24
2018-06-13T00:57:28.228Z,8.23
2018-06-13T00:58:28.701Z,8.24
2018-06-13T00:59:29.176Z,8.22
2018-06-13T01:00:29.651Z,8.22
2018-06-13T01:01:30.127Z,8.20
2018-06-13T01:02:30.601Z,8.22
2018-06-13T01:03:31.076Z,8.20
2018-06-13T01:04:31.551Z,8.20
2018-06-13T01:05:32.024Z,8.16
2018-06-13T01:06:32.499Z,8.17
2018-06-13T01:07:32.974Z,8.17
2018-06-13T01:08:33.448Z,8.14
2018-06-13T01:09:33.923Z,8.14
2018-06-13T01:10:34.397Z,8.13
2018-06-13T01:11:34.871Z,8.13
2018-06-13T01:12:35.344Z,8.12
2018-06-13T01:13:35.818Z,8.12
2018-06-13T01:14:36.293Z,8.12
2018-06-13T01:15:36.765Z,8.11
2018-06-13T01:16:37.243Z,8.10
2018-06-13T01:17:37.712Z,8.10
2018-06-13T01:18:38.186Z,8.10
2018-06-13T01:19:38.659Z,8.10
2018-06-13T01:20:39.134Z,8.08
2018-06-13T01:21:39.610Z,8.06
2018-06-13T01:22:40.077Z,8.06
2018-06-13T01:23:40.548Z,8.06
2018-06-13T01:24:41.020Z,8.06
2018-06-13T01:25:41.491Z,8.04
2018-06-13T01:26:41.964Z,8.03
2018-06-13T01:27:42.434Z,8.03
2018-06-13T01:28:42.906Z,8.02
2018-06-13T01:29:43.382Z,8.02
2018-06-13T01:30:43.854Z,8.02
2018-06-13T01:31:44.323Z,8.01
2018-06-13T01:32:44.790Z,8.00
2018-06-13T01:33:45.262Z,8.00
2018-06-13T01:34:45.734Z,7.98
2018-06-13T01:35:46.205Z,7.97
2018-06-13T01:36:46.675Z,7.97
2018-06-13T01:37:47.146Z,7.96
2018-06-13T01:38:47.616Z,7.95
2018-06-13T01:39:48.088Z,7.94
2018-06-13T01:40:48.559Z,7.93
2018-06-13T01:41:49.029Z,7.92
2018-06-13T01:42:49.501Z,7.90
2018-06-13T01:43:49.973Z,7.92
2018-06-13T01:44:50.446Z,7.91
2018-06-13T01:45:50.914Z,7.90
2018-06-13T01:46:51.388Z,7.89
2018-06-13T01:47:51.857Z,7.89
2018-06-13T01:48:52.329Z,7.86
2018-06-13T01:49:52.801Z,7.86
2018-06-13T01:50:53.276Z,7.86
2018-06-13T01:51:53.744Z,7.86
2018-06-13T01:52:54.219Z,7.85
2018-06-13T01:53:54.690Z,7.84
2018-06-13T01:54:55.163Z,7.83
2018-06-13T01:55:55.637Z,7.83
2018-06-13T01:56:56.108Z,7.82
2018-06-13T01:57:56.580Z,7.83
2018-06-13T01:58:57.058Z,7.82
2018-06-13T01:59:57.527Z,7.81
2018-06-13T02:00:58.002Z,7.80
2018-06-13T02:01:58.472Z,7.80
2018-06-13T02:02:58.947Z,7.79
2018-06-13T02:03:59.420Z,7.78
2018-06-13T02:04:59.894Z,7.78
2018-06-13T02:06:00.369Z,7.78
2018-06-13T02:07:00.842Z,7.76
2018-06-13T02:08:01.317Z,7.76
2018-06-13T02:09:01.792Z,7.76
2018-06-13T02:10:02.269Z,7.75
2018-06-13T02:11:02.741Z,7.74
2018-06-13T02:12:03.215Z,7.74
2018-06-13T02:13:03.691Z,7.72
2018-06-13T02:14:04.165Z,7.71
2018-06-13T02:15:04.639Z,7.73
2018-06-13T02:16:05.113Z,7.72
2018-06-13T02:17:05.588Z,7.70
2018-06-13T02:18:06.063Z,7.69
2018-06-13T02:19:06.537Z,7.68
2018-06-13T02:20:07.012Z,7.66
2018-06-13T02:21:07.485Z,7.68
2018-06-13T02:22:07.960Z,7.66
2018-06-13T02:23:08.434Z,7.64
2018-06-13T02:24:08.909Z,7.66
2018-06-13T02:25:09.380Z,7.63
2018-06-13T02:26:09.857Z,7.63
2018-06-13T02:27:10.329Z,7.62
2018-06-13T02:28:10.800Z,7.61
2018-06-13T02:29:11.274Z,7.60
2018-06-13T02:30:11.747Z,7.60
2018-06-13T02:31:12.227Z,7.58
2018-06-13T02:32:12.692Z,7.58
2018-06-13T02:33:13.165Z,7.57
2018-06-13T02:34:13.636Z,7.56
2018-06-13T02:35:14.111Z,7.55
2018-06-13T02:36:14.583Z,7.55
2018-06-13T02:37:15.051Z,7.53
2018-06-13T02:38:15.522Z,7.52
2018-06-13T02:39:15.993Z,7.50
2018-06-13T02:40:16.472Z,7.50
2018-06-13T02:41:16.935Z,7.48
2018-06-13T02:42:17.406Z,7.46
2018-06-13T02:43:17.877Z,7.44
2018-06-13T02:44:18.347Z,7.42
2018-06-13T02:45:18.822Z,7.40
2018-06-13T02:46:19.289Z,7.38
2018-06-13T02:47:19.762Z,7.37
2018-06-13T02:48:20.235Z,7.36
2018-06-13T02:49:20.704Z,7.34
2018-06-13T02:50:21.172Z,7.32
2018-06-13T02:51:21.643Z,7.30
2018-06-13T02:52:22.114Z,7.30
2018-06-13T02:53:22.584Z,7.30
2018-06-13T02:54:23.057Z,7.28
2018-06-13T02:55:23.527Z,7.26
2018-06-13T02:56:23.998Z,7.26
2018-06-13T02:57:24.470Z,7.23
2018-06-13T02:58:24.941Z,7.23
2018-06-13T02:59:25.412Z,7.22
2018-06-13T03:00:25.884Z,7.22
2018-06-13T03:01:26.361Z,7.21
2018-06-13T03:02:26.828Z,7.20
2018-06-13T03:03:27.323Z,7.18
2018-06-13T03:04:27.770Z,7.16
2018-06-13T03:05:28.243Z,7.16
2018-06-13T03:06:28.714Z,7.15
2018-06-13T03:07:29.190Z,7.14
2018-06-13T03:08:29.661Z,7.13
2018-06-13T03:09:30.133Z,7.12
2018-06-13T03:10:30.608Z,7.11
2018-06-13T03:11:31.081Z,7.10
2018-06-13T03:12:31.551Z,7.09
2018-06-13T03:13:32.026Z,7.08
2018-06-13T03:14:32.498Z,7.08
2018-06-13T03:15:32.974Z,7.08
2018-06-13T03:16:33.445Z,7.06
2018-06-13T03:17:33.919Z,7.06
2018-06-13T03:18:34.394Z,7.04
2018-06-13T03:19:34.870Z,7.05
2018-06-13T03:20:35.342Z,7.04
2018-06-13T03:21:35.815Z,7.03
2018-06-13T03:22:36.290Z,7.02
2018-06-13T03:23:36.764Z,7.02
2018-06-13T03:24:37.238Z,7.01
2018-06-13T03:25:37.713Z,7.00
2018-06-13T03:26:38.192Z,7.00
2018-06-13T03:27:38.661Z,6.98
2018-06-13T03:28:39.137Z,6.98
2018-06-13T03:29:39.611Z,6.97
2018-06-13T03:30:40.085Z,6.97
2018-06-13T03:31:40.561Z,6.96
2018-06-13T03:32:41.033Z,6.94
2018-06-13T03:33:41.512Z,6.96
2018-06-13T03:34:41.982Z,6.94
2018-06-13T03:35:42.456Z,6.92
2018-06-13T03:36:42.930Z,6.94
2018-06-13T03:37:43.406Z,6.92
2018-06-13T03:38:43.878Z,6.92
2018-06-13T03:39:44.350Z,6.92
2018-06-13T03:40:44.825Z,6.92
2018-06-13T03:41:45.296Z,6.91
2018-06-13T03:42:45.769Z,6.90
2018-06-13T03:43:46.241Z,6.89
2018-06-13T03:44:46.713Z,6.88
2018-06-13T03:45:47.185Z,6.88
2018-06-13T03:46:47.657Z,6.88
2018-06-13T03:47:48.131Z,6.88
2018-06-13T03:48:48.601Z,6.88
2018-06-13T03:49:49.073Z,6.88
2018-06-13T03:50:49.543Z,6.86
2018-06-13T03:51:50.015Z,6.84
2018-06-13T03:52:50.488Z,6.85
2018-06-13T03:53:50.959Z,6.83
2018-06-13T03:54:51.426Z,6.83
2018-06-13T03:55:51.897Z,6.82
2018-06-13T03:56:52.367Z,6.82
2018-06-13T03:57:52.838Z,6.81
2018-06-13T03:58:53.308Z,6.81
2018-06-13T03:59:53.780Z,6.80
2018-06-13T04:00:54.249Z,6.79
2018-06-13T04:01:54.721Z,6.78
2018-06-13T04:02:55.192Z,6.78
2018-06-13T04:03:55.663Z,6.78
2018-06-13T04:04:56.134Z,6.76
2018-06-13T04:05:56.604Z,6.77
2018-06-13T04:06:57.078Z,6.76
2018-06-13T04:07:57.548Z,6.74
2018-06-13T04:08:58.019Z,6.76
2018-06-13T04:09:58.488Z,6.75
2018-06-13T04:10:58.958Z,6.74
2018-06-13T04:11:59.431Z,6.74
2018-06-13T04:12:59.902Z,6.74
2018-06-13T04:14:00.372Z,6.74
2018-06-13T04:15:00.845Z,6.73
2018-06-13T04:16:01.316Z,6.72
2018-06-13T04:17:01.788Z,6.72
2018-06-13T04:18:02.262Z,6.72
2018-06-13T04:19:02.733Z,6.72
2018-06-13T04:20:03.207Z,6.71
2018-06-13T04:21:03.676Z,6.70
2018-06-13T04:22:04.149Z,6.70
2018-06-13T04:23:04.622Z,6.69
2018-06-13T04:24:05.099Z,6.67
2018-06-13T04:25:05.567Z,6.68
2018-06-13T04:26:06.042Z,6.65
2018-06-13T04:27:06.514Z,6.66
2018-06-13T04:28:06.987Z,6.66
2018-06-13T04:29:07.462Z,6.66
2018-06-13T04:30:07.935Z,6.64
2018-06-13T04:31:08.408Z,6.64
2018-06-13T04:32:08.880Z,6.65
2018-06-13T04:33:09.355Z,6.64
2018-06-13T04:35:10.302Z,6.63
2018-06-13T04:36:10.781Z,6.63
2018-06-13T04:37:11.251Z,6.64
2018-06-13T04:38:11.724Z,6.62
2018-06-13T04:39:12.204Z,6.62
2018-06-13T04:40:12.674Z,6.62
2018-06-13T04:41:13.146Z,6.62
2018-06-13T04:42:13.624Z,6.62
2018-06-13T04:43:14.096Z,6.62
2018-06-13T04:44:14.572Z,6.62
2018-06-13T04:45:15.047Z,6.64
2018-06-13T04:46:15.520Z,6.64
2018-06-13T04:47:15.993Z,6.63
2018-06-13T04:48:16.469Z,6.62
2018-06-13T04:49:16.943Z,6.62
2018-06-13T04:50:17.414Z,6.62
2018-06-13T04:51:17.889Z,6.62
2018-06-13T04:52:18.363Z,6.61
2018-06-13T04:53:18.835Z,6.62
2018-06-13T04:54:19.309Z,6.64
2018-06-13T04:55:19.782Z,6.63
2018-06-13T04:56:20.255Z,6.63
2018-06-13T04:57:20.730Z,6.63
2018-06-13T04:58:21.247Z,6.62
2018-06-13T04:59:21.674Z,6.62
2018-06-13T05:00:22.144Z,6.62
2018-06-13T05:01:22.615Z,6.62
2018-06-13T05:02:23.088Z,6.62
2018-06-13T05:03:23.559Z,6.60
2018-06-13T05:04:24.031Z,6.61
2018-06-13T05:05:24.500Z,6.60
2018-06-13T05:06:24.972Z,6.60
2018-06-13T05:07:25.446Z,6.59
2018-06-13T05:08:25.915Z,6.60
2018-06-13T05:09:26.386Z,6.59
2018-06-13T05:10:26.858Z,6.60
2018-06-13T05:11:27.333Z,6.58
2018-06-13T05:12:27.803Z,6.58
2018-06-13T05:13:28.268Z,6.59
2018-06-13T05:14:28.740Z,6.58
2018-06-13T05:15:29.211Z,6.59
2018-06-13T05:16:29.682Z,6.58
2018-06-13T05:17:30.151Z,6.58
2018-06-13T05:18:30.623Z,6.57
2018-06-13T05:19:31.094Z,6.58
2018-06-13T05:20:31.565Z,6.58
2018-06-13T05:21:32.034Z,6.57
2018-06-13T05:22:32.509Z,6.56
2018-06-13T05:23:32.977Z,6.57
2018-06-13T05:24:33.449Z,6.56
2018-06-13T05:25:33.920Z,6.58
2018-06-13T05:26:34.395Z,6.56
2018-06-13T05:27:34.866Z,6.56
2018-06-13T05:28:35.342Z,6.57
2018-06-13T05:29:35.807Z,6.56
2018-06-13T05:30:36.281Z,6.56
2018-06-13T05:31:36.751Z,6.56
2018-06-13T05:32:37.223Z,6.56
2018-06-13T05:33:37.698Z,6.54
2018-06-13T05:34:38.168Z,6.55
2018-06-13T05:35:38.643Z,6.56
2018-06-13T05:36:39.118Z,6.55
2018-06-13T05:37:39.588Z,6.55
2018-06-13T05:38:40.060Z,6.54
2018-06-13T05:39:40.533Z,6.54
2018-06-13T05:40:41.006Z,6.56
2018-06-13T05:41:41.479Z,6.55
2018-06-13T05:42:41.955Z,6.54
2018-06-13T05:43:42.429Z,6.56
2018-06-13T05:44:42.904Z,6.56
2018-06-13T05:45:43.374Z,6.55
2018-06-13T05:46:43.847Z,6.54
2018-06-13T05:47:44.322Z,6.56
2018-06-13T05:48:44.797Z,6.55
2018-06-13T05:49:45.269Z,6.54
2018-06-13T05:50:45.745Z,6.54
2018-06-13T05:51:46.216Z,6.54
2018-06-13T05:52:46.696Z,6.55
2018-06-13T05:53:47.168Z,6.55
2018-06-13T05:54:47.641Z,6.54
2018-06-13T05:55:48.116Z,6.54
2018-06-13T05:56:48.593Z,6.54
2018-06-13T05:57:49.065Z,6.54
2018-06-13T05:58:49.539Z,6.54
2018-06-13T05:59:50.016Z,6.54
2018-06-13T06:00:50.490Z,6.55
2018-06-13T06:01:50.963Z,6.54
2018-06-13T06:02:51.438Z,6.55
2018-06-13T06:03:51.912Z,6.56
2018-06-13T06:04:52.384Z,6.54
2018-06-13T06:05:52.880Z,6.56
2018-06-13T06:06:53.336Z,6.56
2018-06-13T06:07:53.805Z,6.55
2018-06-13T06:08:54.281Z,6.56
2018-06-13T06:09:54.751Z,6.55
2018-06-13T06:10:55.222Z,6.55
2018-06-13T06:11:55.695Z,6.55
2018-06-13T06:12:56.171Z,6.55
2018-06-13T06:13:56.640Z,6.54
2018-06-13T06:14:57.162Z,6.54
2018-06-13T06:15:57.587Z,6.54
2018-06-13T06:16:58.056Z,6.54
2018-06-13T06:17:58.529Z,6.54
2018-06-13T06:18:58.998Z,6.53
2018-06-13T06:19:59.470Z,6.54
2018-06-13T06:20:59.941Z,6.52
2018-06-13T06:22:00.411Z,6.52
2018-06-13T06:23:00.882Z,6.51
2018-06-13T06:24:01.354Z,6.52
2018-06-13T06:25:01.879Z,6.50
2018-06-13T06:26:02.296Z,6.50
2018-06-13T06:27:02.766Z,6.50
2018-06-13T06:28:03.238Z,6.50
2018-06-13T06:29:03.707Z,6.50
2018-06-13T06:30:04.178Z,6.49
2018-06-13T06:31:04.653Z,6.48
2018-06-13T06:32:05.127Z,6.49
2018-06-13T06:33:05.590Z,6.48
2018-06-13T06:34:06.060Z,6.46
2018-06-13T06:35:06.534Z,6.46
2018-06-13T06:36:07.006Z,6.46
2018-06-13T06:37:07.474Z,6.46
2018-06-13T06:38:07.947Z,6.44
2018-06-13T06:39:08.418Z,6.45
2018-06-13T06:40:08.887Z,6.44
2018-06-13T06:41:09.360Z,6.42
2018-06-13T06:42:09.865Z,6.43
2018-06-13T06:43:10.303Z,6.40
2018-06-13T06:44:10.776Z,6.40
2018-06-13T06:45:11.247Z,6.38
2018-06-13T06:46:11.718Z,6.37
2018-06-13T06:47:12.191Z,6.35
2018-06-13T06:48:12.663Z,6.34
2018-06-13T06:49:13.134Z,6.33
2018-06-13T06:50:13.609Z,6.29
2018-06-13T06:51:14.080Z,6.29
2018-06-13T06:52:14.552Z,6.27
2018-06-13T06:53:15.027Z,6.25
2018-06-13T06:54:15.499Z,6.24
2018-06-13T06:55:16.030Z,6.22
2018-06-13T06:56:16.445Z,6.21
2018-06-13T06:57:16.918Z,6.20
2018-06-13T06:58:17.390Z,6.17
2018-06-13T06:59:17.864Z,6.17
2018-06-13T07:00:18.544Z,6.16
2018-06-13T07:01:19.014Z,6.14
2018-06-13T07:02:19.286Z,6.14
2018-06-13T07:03:19.767Z,6.13
2018-06-13T07:04:20.246Z,6.12
2018-06-13T07:05:20.706Z,6.12
2018-06-13T07:06:21.181Z,6.12
2018-06-13T07:07:21.655Z,6.11
2018-06-13T07:08:22.128Z,6.12
2018-06-13T07:09:22.608Z,6.12
2018-06-13T07:10:23.079Z,6.12
2018-06-13T07:11:23.551Z,6.12
2018-06-13T07:12:24.026Z,6.12
2018-06-13T07:13:24.502Z,6.12
2018-06-13T07:14:24.973Z,6.12
2018-06-13T07:15:25.447Z,6.12
2018-06-13T07:16:25.927Z,6.13
2018-06-13T07:17:26.399Z,6.13
2018-06-13T07:18:26.870Z,6.15
2018-06-13T07:19:27.343Z,6.15
2018-06-13T07:20:27.821Z,6.16
2018-06-13T07:21:28.291Z,6.16
2018-06-13T07:22:28.766Z,6.18
2018-06-13T07:23:29.236Z,6.18
2018-06-13T07:24:29.711Z,6.18
2018-06-13T07:25:30.184Z,6.18
2018-06-13T07:26:30.655Z,6.20
2018-06-13T07:27:31.129Z,6.20
2018-06-13T07:28:31.602Z,6.20
2018-06-13T07:29:32.073Z,6.20
2018-06-13T07:30:32.543Z,6.20
2018-06-13T07:31:33.016Z,6.20
2018-06-13T07:32:33.487Z,6.22
2018-06-13T07:33:33.999Z,6.24
2018-06-13T07:34:34.429Z,6.24
2018-06-13T07:35:34.900Z,6.24
2018-06-13T07:36:35.375Z,6.24
2018-06-13T07:37:35.842Z,6.24
2018-06-13T07:38:36.312Z,6.24
2018-06-13T07:39:36.784Z,6.23
2018-06-13T07:40:37.255Z,6.24
2018-06-13T07:41:37.729Z,6.26
2018-06-13T07:42:38.198Z,6.24
2018-06-13T07:43:38.666Z,6.26
2018-06-13T07:44:39.138Z,6.26
2018-06-13T07:45:39.608Z,6.26
2018-06-13T07:46:40.079Z,6.26
2018-06-13T07:47:40.552Z,6.27
2018-06-13T07:48:41.020Z,6.27
2018-06-13T07:49:41.550Z,6.28
2018-06-13T07:50:41.961Z,6.28
2018-06-13T07:51:42.433Z,6.28
2018-06-13T07:52:42.904Z,6.28
2018-06-13T07:53:43.375Z,6.28
2018-06-13T07:54:43.846Z,6.29
2018-06-13T07:55:44.321Z,6.30
2018-06-13T07:56:44.789Z,6.30
2018-06-13T07:57:45.260Z,6.30
2018-06-13T07:58:45.730Z,6.31
2018-06-13T07:59:46.205Z,6.32
2018-06-13T08:00:46.675Z,6.33
2018-06-13T08:01:47.147Z,6.33
2018-06-13T08:02:47.621Z,6.34
2018-06-13T08:03:48.091Z,6.34
2018-06-13T08:04:48.563Z,6.34
2018-06-13T08:05:49.036Z,6.35
2018-06-13T08:06:49.513Z,6.35
2018-06-13T08:07:49.981Z,6.36
2018-06-13T08:08:50.507Z,6.36
2018-06-13T08:09:50.928Z,6.37
2018-06-13T08:10:51.401Z,6.38
2018-06-13T08:11:51.877Z,6.36
2018-06-13T08:12:52.348Z,6.39
2018-06-13T08:13:52.821Z,6.38
2018-06-13T08:14:53.296Z,6.40
2018-06-13T08:15:53.769Z,6.40
2018-06-13T08:16:54.251Z,6.40
2018-06-13T08:17:54.719Z,6.42
2018-06-13T08:18:55.191Z,6.41
2018-06-13T08:19:55.663Z,6.42
2018-06-13T08:20:56.139Z,6.43
2018-06-13T08:21:56.613Z,6.44
2018-06-13T08:22:57.087Z,6.44
2018-06-13T08:23:57.561Z,6.44
2018-06-13T08:24:58.035Z,6.46
2018-06-13T08:25:58.514Z,6.45
2018-06-13T08:26:58.984Z,6.46
2018-06-13T08:27:59.458Z,6.46
2018-06-13T08:28:59.933Z,6.46
2018-06-13T08:30:00.410Z,6.48
2018-06-13T08:31:00.880Z,6.48
2018-06-13T08:32:01.356Z,6.48
2018-06-13T08:33:01.830Z,6.50
2018-06-13T08:34:02.304Z,6.49
2018-06-13T08:35:02.776Z,6.50
2018-06-13T08:36:03.252Z,6.52
2018-06-13T08:37:03.726Z,6.52
2018-06-13T08:38:04.198Z,6.52
2018-06-13T08:39:04.670Z,6.53
2018-06-13T08:40:05.144Z,6.54
2018-06-13T08:41:05.616Z,6.55
2018-06-13T08:42:06.094Z,6.54
2018-06-13T08:43:06.559Z,6.56
2018-06-13T08:44:07.032Z,6.56
2018-06-13T08:45:07.505Z,6.56
2018-06-13T08:46:07.982Z,6.56
2018-06-13T08:47:08.447Z,6.58
2018-06-13T08:48:08.919Z,6.59
2018-06-13T08:49:09.391Z,6.60
2018-06-13T08:50:09.861Z,6.60
2018-06-13T08:51:10.331Z,6.60
2018-06-13T08:52:10.803Z,6.62
2018-06-13T08:53:11.275Z,6.62
2018-06-13T08:54:11.752Z,6.63
2018-06-13T08:55:12.218Z,6.64
2018-06-13T08:56:12.686Z,6.64
2018-06-13T08:57:13.158Z,6.64
2018-06-13T08:58:13.628Z,6.64
2018-06-13T08:59:14.103Z,6.66
2018-06-13T09:00:14.570Z,6.66
2018-06-13T09:01:15.040Z,6.66
2018-06-13T09:02:15.511Z,6.68
2018-06-13T09:03:16.000Z,6.68
2018-06-13T09:04:16.455Z,6.68
2018-06-13T09:05:16.925Z,6.71
2018-06-13T09:06:17.397Z,6.70
2018-06-13T09:07:17.866Z,6.71
2018-06-13T09:08:18.341Z,6.72
2018-06-13T09:09:18.809Z,6.74
2018-06-13T09:10:19.282Z,6.74
2018-06-13T09:11:19.753Z,6.77
2018-06-13T09:12:20.227Z,6.76
2018-06-13T09:13:20.698Z,6.78
2018-06-13T09:14:21.173Z,6.78
2018-06-13T09:15:21.641Z,6.80
2018-06-13T09:16:22.114Z,6.81
2018-06-13T09:17:22.587Z,6.81
2018-06-13T09:18:23.059Z,6.82
2018-06-13T09:19:23.537Z,6.84
2018-06-13T09:20:24.005Z,6.84
2018-06-13T09:21:24.480Z,6.85
2018-06-13T09:23:25.423Z,6.89
2018-06-13T09:24:25.896Z,6.91
2018-06-13T09:25:26.371Z,6.92
2018-06-13T09:26:26.849Z,6.93
2018-06-13T09:27:27.318Z,6.94
2018-06-13T09:28:27.792Z,6.96
2018-06-13T09:29:28.266Z,6.98
2018-06-13T09:30:28.744Z,6.98
2018-06-13T09:31:29.215Z,7.00
2018-06-13T09:32:29.688Z,7.02
2018-06-13T09:33:30.167Z,7.04
2018-06-13T09:34:30.638Z,7.06
2018-06-13T09:35:31.113Z,7.07
2018-06-13T09:36:31.738Z,7.10
2018-06-13T09:37:32.154Z,7.10
2018-06-13T09:38:32.537Z,7.13
2018-06-13T09:39:33.012Z,7.15
2018-06-13T09:40:33.486Z,7.16
2018-06-13T09:41:33.962Z,7.18
2018-06-13T09:42:34.436Z,7.20
2018-06-13T09:43:34.910Z,7.22
2018-06-13T09:44:35.385Z,7.23
2018-06-13T09:45:35.862Z,7.24
2018-06-13T09:46:36.334Z,7.27
2018-06-13T09:47:36.808Z,7.29
2018-06-13T09:48:37.281Z,7.30
2018-06-13T09:49:37.755Z,7.32
2018-06-13T09:50:38.229Z,7.34
2018-06-13T09:51:38.702Z,7.34
2018-06-13T09:52:39.175Z,7.37
2018-06-13T09:53:39.647Z,7.40
2018-06-13T09:54:40.121Z,7.42
2018-06-13T09:55:40.593Z,7.44
2018-06-13T09:56:41.284Z,7.46
2018-06-13T09:57:41.538Z,7.46
2018-06-13T09:58:42.012Z,7.48
2018-06-13T09:59:42.482Z,7.51
2018-06-13T10:00:42.954Z,7.51
2018-06-13T10:01:43.474Z,7.56
2018-06-13T10:02:43.898Z,7.57
2018-06-13T10:03:44.370Z,7.58
2018-06-13T10:04:44.862Z,7.60
2018-06-13T10:05:45.309Z,7.63
2018-06-13T10:06:45.783Z,7.62
2018-06-13T10:07:46.253Z,7.66
2018-06-13T10:08:46.775Z,7.66
2018-06-13T10:09:47.198Z,7.68
2018-06-13T10:10:47.668Z,7.71
2018-06-13T10:11:48.137Z,7.72
2018-06-13T10:12:48.609Z,7.73
2018-06-13T10:13:49.079Z,7.74
2018-06-13T10:14:49.584Z,7.78
2018-06-13T10:15:50.022Z,7.79
2018-06-13T10:16:50.515Z,7.79
2018-06-13T10:17:50.965Z,7.80
2018-06-13T10:18:51.437Z,7.81
2018-06-13T10:19:51.908Z,7.84
2018-06-13T10:20:52.382Z,7.86
2018-06-13T10:21:52.850Z,7.88
2018-06-13T10:23:53.794Z,7.90
2018-06-13T10:24:54.268Z,7.93
2018-06-13T10:25:54.740Z,7.94
2018-06-13T10:26:55.213Z,7.96
2018-06-13T10:27:55.686Z,7.98
2018-06-13T10:28:56.194Z,8.01
2018-06-13T10:29:56.630Z,8.04
2018-06-13T10:30:57.106Z,8.06
2018-06-13T10:31:57.578Z,8.08
2018-06-13T10:32:58.050Z,8.12
2018-06-13T10:33:58.523Z,8.12
2018-06-13T10:34:58.997Z,8.15
2018-06-13T10:35:59.470Z,8.18
2018-06-13T10:37:00.148Z,8.18
2018-06-13T10:38:00.419Z,8.22
2018-06-13T10:39:00.894Z,8.26
2018-06-13T10:40:01.368Z,8.26
2018-06-13T10:41:01.841Z,8.30
2018-06-13T10:42:02.319Z,8.32
2018-06-13T10:43:02.793Z,8.35
2018-06-13T10:44:03.267Z,8.36
2018-06-13T10:45:03.743Z,8.39
2018-06-13T10:46:04.220Z,8.42
2018-06-13T10:47:04.695Z,8.44
2018-06-13T10:48:05.166Z,8.46
2018-06-13T10:49:05.642Z,8.50
2018-06-13T10:50:06.117Z,8.52
2018-06-13T10:51:06.593Z,8.56
2018-06-13T10:52:07.273Z,8.58
2018-06-13T10:53:07.545Z,8.60
2018-06-13T10:54:08.016Z,8.62
2018-06-13T10:55:08.491Z,8.65
2018-06-13T10:56:08.964Z,8.68
2018-06-13T10:57:09.440Z,8.71
2018-06-13T10:58:09.914Z,8.73
2018-06-13T10:59:10.390Z,8.76
2018-06-13T11:00:10.864Z,8.78
2018-06-13T11:01:11.335Z,8.81
2018-06-13T11:02:11.811Z,8.84
2018-06-13T11:03:12.282Z,8.87
2018-06-13T11:04:12.755Z,8.88
2018-06-13T11:05:13.229Z,8.92
2018-06-13T11:06:13.702Z,8.96
2018-06-13T11:07:14.178Z,8.98
2018-06-13T11:08:14.645Z,9.01
2018-06-13T11:09:15.121Z,9.04
2018-06-13T11:10:15.595Z,9.07
2018-06-13T11:11:16.065Z,9.10
2018-06-13T11:12:16.537Z,9.11
2018-06-13T11:13:17.009Z,9.16
2018-06-13T11:14:17.481Z,9.17
2018-06-13T11:15:17.953Z,9.20
2018-06-13T11:16:18.423Z,9.22
2018-06-13T11:17:18.896Z,9.26
2018-06-13T11:18:19.367Z,9.30
2018-06-13T11:19:19.838Z,9.32
2018-06-13T11:20:20.325Z,9.36
2018-06-13T11:21:20.781Z,9.38
2018-06-13T11:22:21.251Z,9.40
2018-06-13T11:23:21.722Z,9.44
2018-06-13T11:24:22.194Z,9.46
2018-06-13T11:25:22.665Z,9.49
2018-06-13T11:26:23.137Z,9.52
2018-06-13T11:27:23.611Z,9.55
2018-06-13T11:28:24.082Z,9.57
2018-06-13T11:29:24.554Z,9.60
2018-06-13T11:30:25.030Z,9.62
2018-06-13T11:31:25.529Z,9.64
2018-06-13T11:32:25.970Z,9.68
2018-06-13T11:33:26.443Z,9.70
2018-06-13T11:34:26.916Z,9.74
2018-06-13T11:35:27.388Z,9.76
2018-06-13T11:36:27.860Z,9.79
2018-06-13T11:37:28.334Z,9.83
2018-06-13T11:39:29.280Z,9.85
2018-06-13T11:40:29.755Z,9.88
2018-06-13T11:41:30.298Z,9.91
2018-06-13T11:42:30.702Z,9.94
2018-06-13T11:43:31.185Z,9.96
2018-06-13T11:44:31.649Z,9.99
2018-06-13T11:45:32.130Z,10.02
2018-06-13T11:46:32.610Z,10.04
2018-06-13T11:47:33.077Z,10.06
2018-06-13T11:48:33.547Z,10.08
2018-06-13T11:49:34.022Z,10.10
2018-06-13T11:50:34.499Z,10.12
2018-06-13T11:51:34.978Z,10.14
2018-06-13T11:52:35.449Z,10.16
2018-06-13T11:53:36.136Z,10.18
2018-06-13T11:54:36.401Z,10.21
2018-06-13T11:55:36.874Z,10.24
2018-06-13T11:56:37.351Z,10.25
2018-06-13T11:57:37.825Z,10.27
2018-06-13T11:58:38.301Z,10.30
2018-06-13T11:59:38.779Z,10.31
2018-06-13T12:00:39.251Z,10.34
2018-06-13T12:01:39.739Z,10.36
2018-06-13T12:02:40.199Z,10.37
2018-06-13T12:03:40.675Z,10.40
2018-06-13T12:04:41.149Z,10.42
2018-06-13T12:05:41.625Z,10.46
2018-06-13T12:06:42.100Z,10.46
2018-06-13T12:07:42.776Z,10.49
2018-06-13T12:08:43.046Z,10.51
2018-06-13T12:09:43.519Z,10.54
2018-06-13T12:10:43.994Z,10.55
2018-06-13T12:11:44.469Z,10.58
2018-06-13T12:12:44.942Z,10.60
2018-06-13T12:13:45.416Z,10.62
2018-06-13T12:14:45.890Z,10.63
2018-06-13T12:15:46.363Z,10.66
2018-06-13T12:16:46.838Z,10.68
2018-06-13T12:17:47.308Z,10.70
2018-06-13T12:18:47.786Z,10.72
2018-06-13T12:19:48.254Z,10.74
2018-06-13T12:20:48.725Z,10.78
2018-06-13T12:21:49.200Z,10.79
2018-06-13T12:22:49.670Z,10.83
2018-06-13T12:23:50.142Z,10.84
2018-06-13T12:24:50.617Z,10.87
2018-06-13T12:25:51.089Z,10.88
2018-06-13T12:26:51.558Z,10.91
2018-06-13T12:27:52.041Z,10.94
2018-06-13T12:28:52.501Z,10.96
2018-06-13T12:29:52.972Z,10.98
2018-06-13T12:30:53.442Z,11.01
2018-06-13T12:31:53.917Z,11.03
2018-06-13T12:32:54.385Z,11.05
2018-06-13T12:33:54.858Z,11.08
2018-06-13T12:34:55.331Z,11.10
2018-06-13T12:35:55.806Z,11.12
2018-06-13T12:36:56.273Z,11.15
2018-06-13T12:37:56.745Z,11.18
2018-06-13T12:38:57.222Z,11.18
2018-06-13T12:39:57.690Z,11.22
2018-06-13T12:40:58.161Z,11.24
2018-06-13T12:41:58.634Z,11.27
2018-06-13T12:42:59.309Z,11.28
2018-06-13T12:43:59.581Z,11.30
2018-06-13T12:45:00.056Z,11.32
2018-06-13T12:46:00.527Z,11.34
2018-06-13T12:47:01.001Z,11.36
2018-06-13T12:48:01.478Z,11.38
2018-06-13T12:49:01.947Z,11.39
2018-06-13T12:50:02.423Z,11.42
2018-06-13T12:51:02.895Z,11.44
2018-06-13T12:52:03.373Z,11.46
2018-06-13T12:53:03.844Z,11.48
2018-06-13T12:54:04.320Z,11.50
2018-06-13T12:55:04.797Z,11.52
2018-06-13T12:56:05.268Z,11.52
2018-06-13T12:57:05.743Z,11.56
2018-06-13T12:58:06.369Z,11.58
2018-06-13T12:59:06.695Z,11.61
2018-06-13T13:00:07.173Z,11.63
2018-06-13T13:01:07.644Z,11.64
2018-06-13T13:02:08.119Z,11.66
2018-06-13T13:03:08.599Z,11.69
2018-06-13T13:04:09.071Z,11.70
2018-06-13T13:05:09.547Z,11.72
2018-06-13T13:06:10.023Z,11.74
2018-06-13T13:07:10.497Z,11.76
2018-06-13T13:08:10.973Z,11.78
2018-06-13T13:09:11.445Z,11.79
2018-06-13T13:10:11.923Z,11.82
2018-06-13T13:11:12.460Z,11.84
2018-06-13T13:12:12.915Z,11.86
2018-06-13T13:13:13.349Z,11.87
2018-06-13T13:14:13.822Z,11.90
2018-06-13T13:15:14.298Z,11.93
2018-06-13T13:16:14.772Z,11.93
2018-06-13T13:17:15.248Z,11.94
2018-06-13T13:18:15.721Z,11.98
2018-06-13T13:19:16.194Z,12.00
2018-06-13T13:20:16.673Z,12.01
2018-06-13T13:21:17.150Z,12.04
2018-06-13T13:22:17.617Z,12.04
2018-06-13T13:23:18.092Z,12.08
2018-06-13T13:24:18.565Z,12.11
2018-06-13T13:25:19.041Z,12.12